Time;durP1;ratioP1;P1;durP2;ratioP2;P2;SDS_P1;SDS_P2;PMS_P1;PMS_P2;Temp;Humidity;BMP_temperature;BMP_pressure;BME280_temperature;BME280_humidity;BME280_pressure;Samples;Min_cycle;Max_cycle;Signal;HPM_P1;HPM_P2
2023/10/27 00:01:57;;;;;;;4.95;2.80;;;9.70;99.90;;;;;;5014189;28;20544;-75
2023/10/27 00:04:23;;;;;;;5.55;3.20;;;9.70;99.90;;;;;;5014130;28;20527;-74
2023/10/27 00:06:49;;;;;;;4.93;3.05;;;9.70;99.90;;;;;;5014035;28;20034;-74
2023/10/27 00:09:14;;;;;;;3.60;2.35;;;9.70;99.90;;;;;;5014098;28;20032;-74
2023/10/27 00:11:40;;;;;;;3.95;2.97;;;9.70;99.90;;;;;;5013944;28;20034;-75
2023/10/27 00:14:06;;;;;;;4.45;2.75;;;9.70;99.90;;;;;;5012753;28;20044;-74
2023/10/27 00:16:32;;;;;;;4.53;2.65;;;9.70;99.90;;;;;;5014188;28;20427;-74
2023/10/27 00:18:58;;;;;;;4.45;2.63;;;9.70;99.90;;;;;;5013950;28;20026;-74
2023/10/27 00:21:23;;;;;;;5.35;2.78;;;9.70;99.90;;;;;;5013802;28;20036;-74
2023/10/27 00:23:49;;;;;;;4.07;2.67;;;9.70;99.90;;;;;;5012633;28;20113;-74
2023/10/27 00:26:14;;;;;;;4.47;2.50;;;9.70;99.90;;;;;;5014097;28;20033;-74
2023/10/27 00:28:40;;;;;;;4.05;2.65;;;9.70;99.90;;;;;;5013974;28;20030;-75
2023/10/27 00:31:06;;;;;;;4.70;2.80;;;9.70;99.90;;;;;;5013708;28;20026;-74
2023/10/27 00:33:31;;;;;;;7.05;3.10;;;9.70;99.90;;;;;;5013735;28;20193;-74
2023/10/27 00:35:57;;;;;;;3.97;2.92;;;9.70;99.90;;;;;;5014006;28;20072;-75
2023/10/27 00:38:23;;;;;;;4.72;2.97;;;9.70;99.90;;;;;;5013976;28;20030;-74
2023/10/27 00:40:49;;;;;;;4.38;2.85;;;9.60;99.90;;;;;;5013709;28;20030;-75
2023/10/27 00:43:16;;;;;;;5.20;2.88;;;9.60;99.90;;;;;;5013643;28;20036;-74
2023/10/27 00:45:47;;;;;;;4.93;2.80;;;9.60;99.90;;;;;;5013646;28;20037;-75
2023/10/27 00:48:12;;;;;;;4.63;2.50;;;9.60;99.90;;;;;;5013551;28;20087;-75
2023/10/27 00:50:38;;;;;;;4.82;2.60;;;9.60;99.90;;;;;;5013994;28;20026;-74
2023/10/27 00:53:04;;;;;;;4.25;2.85;;;9.60;99.90;;;;;;5013730;28;20026;-75
2023/10/27 00:55:30;;;;;;;3.67;2.33;;;9.60;99.90;;;;;;5014026;28;20507;-74
2023/10/27 00:57:57;;;;;;;4.70;2.53;;;9.70;99.90;;;;;;5013343;28;20052;-74
2023/10/27 01:00:23;;;;;;;3.55;2.45;;;9.60;99.90;;;;;;5013387;28;20437;-75
2023/10/27 01:02:49;;;;;;;3.67;2.67;;;9.60;99.90;;;;;;5013730;28;20109;-74
2023/10/27 01:05:15;;;;;;;4.32;3.08;;;9.60;99.90;;;;;;5013398;28;20029;-74
2023/10/27 01:07:41;;;;;;;5.20;3.05;;;9.60;99.90;;;;;;5013386;28;20386;-74
2023/10/27 01:10:07;;;;;;;4.55;2.88;;;9.60;99.90;;;;;;5013527;28;20036;-75
2023/10/27 01:12:33;;;;;;;4.53;3.25;;;9.60;99.90;;;;;;5013454;28;20127;-74
2023/10/27 01:14:59;;;;;;;4.22;2.83;;;9.60;99.90;;;;;;5013633;28;20022;-74
2023/10/27 01:17:24;;;;;;;4.65;2.95;;;9.70;99.90;;;;;;5012148;28;20479;-75
2023/10/27 01:19:53;;;;;;;3.83;2.65;;;9.70;99.90;;;;;;5011992;28;20065;-74
2023/10/27 01:22:19;;;;;;;5.07;2.83;;;9.60;99.90;;;;;;5013177;28;20029;-74
2023/10/27 01:24:44;;;;;;;4.80;2.90;;;9.60;99.90;;;;;;5013184;28;20072;-75
2023/10/27 01:27:10;;;;;;;5.68;2.90;;;9.60;99.90;;;;;;5013100;28;20030;-74
2023/10/27 01:29:36;;;;;;;5.75;3.40;;;9.60;99.90;;;;;;5013145;28;20390;-74
2023/10/27 01:32:01;;;;;;;5.55;3.30;;;9.60;99.90;;;;;;5013421;28;20026;-74
2023/10/27 01:34:27;;;;;;;4.30;2.83;;;9.60;99.90;;;;;;5013803;28;20057;-74
2023/10/27 01:36:53;;;;;;;5.28;2.97;;;9.50;99.90;;;;;;5016875;28;20034;-74
2023/10/27 01:39:19;;;;;;;3.95;2.60;;;9.50;99.90;;;;;;5017261;28;20026;-74
2023/10/27 01:41:44;;;;;;;4.07;2.60;;;9.50;99.90;;;;;;5016737;28;20026;-74
2023/10/27 01:44:10;;;;;;;4.38;2.60;;;9.50;99.90;;;;;;5017221;28;20041;-74
2023/10/27 01:46:36;;;;;;;4.93;2.33;;;9.60;99.90;;;;;;5015394;28;20099;-74
2023/10/27 01:49:03;;;;;;;4.10;2.30;;;9.60;99.90;;;;;;5016852;28;20026;-74
2023/10/27 01:51:28;;;;;;;4.22;2.25;;;9.60;99.90;;;;;;5016478;28;20033;-74
2023/10/27 01:53:54;;;;;;;4.28;2.65;;;9.60;99.90;;;;;;5015332;28;20385;-74
2023/10/27 01:56:20;;;;;;;5.07;2.70;;;9.60;99.90;;;;;;5016711;28;20038;-74
2023/10/27 01:58:45;;;;;;;4.32;3.05;;;9.60;99.90;;;;;;5016300;28;20045;-74
2023/10/27 02:01:14;;;;;;;4.38;2.92;;;9.60;99.90;;;;;;5016249;28;20032;-74
2023/10/27 02:03:40;;;;;;;4.35;2.83;;;9.60;99.90;;;;;;5015135;28;20037;-74
2023/10/27 02:06:05;;;;;;;4.88;3.20;;;9.60;99.90;;;;;;5014992;28;20030;-74
2023/10/27 02:08:31;;;;;;;4.18;2.90;;;9.60;99.90;;;;;;5016165;28;20030;-74
2023/10/27 02:10:57;;;;;;;4.07;2.53;;;9.60;99.90;;;;;;5016108;28;20037;-74
2023/10/27 02:13:22;;;;;;;4.45;3.00;;;9.60;99.90;;;;;;5016450;28;20022;-74
2023/10/27 02:15:48;;;;;;;3.85;2.47;;;9.60;99.90;;;;;;5014912;28;20026;-74
2023/10/27 02:18:14;;;;;;;4.00;2.60;;;9.60;99.90;;;;;;5016056;28;20034;-74
2023/10/27 02:20:39;;;;;;;4.20;2.63;;;9.70;99.90;;;;;;5016091;28;20386;-74
2023/10/27 02:23:05;;;;;;;3.10;2.10;;;9.70;99.90;;;;;;5016259;28;20057;-74
2023/10/27 02:25:31;;;;;;;3.58;2.42;;;9.70;99.90;;;;;;5016221;28;20034;-74
2023/10/27 02:27:56;;;;;;;4.97;2.70;;;9.70;99.90;;;;;;5015895;28;20481;-74
2023/10/27 02:30:22;;;;;;;5.97;3.13;;;9.70;99.90;;;;;;5015768;28;20029;-74
2023/10/27 02:32:48;;;;;;;6.45;4.15;;;9.60;99.90;;;;;;5015769;28;20026;-74
2023/10/27 02:35:13;;;;;;;4.95;3.50;;;9.70;99.90;;;;;;5014786;28;20029;-74
2023/10/27 02:37:39;;;;;;;5.20;3.20;;;9.70;99.90;;;;;;5015702;28;20033;-74
2023/10/27 02:40:06;;;;;;;5.60;3.30;;;9.70;99.90;;;;;;5015648;28;20034;-74
2023/10/27 02:42:37;;;;;;;4.22;2.70;;;9.70;99.90;;;;;;5014843;28;20037;-74
2023/10/27 02:45:04;;;;;;;4.00;2.88;;;9.70;99.90;;;;;;5016334;28;20032;-74
2023/10/27 02:47:29;;;;;;;3.45;2.60;;;9.60;99.90;;;;;;5014487;28;20033;-74
2023/10/27 02:49:55;;;;;;;5.70;2.97;;;9.60;99.90;;;;;;5015701;28;20048;-73
2023/10/27 02:52:20;;;;;;;5.07;2.85;;;9.60;99.90;;;;;;5015461;28;20053;-74
2023/10/27 02:54:46;;;;;;;4.78;2.95;;;9.70;99.90;;;;;;5015377;28;20030;-74
2023/10/27 02:57:12;;;;;;;4.45;3.17;;;9.70;99.90;;;;;;5029265;28;20034;-73
2023/10/27 02:59:38;;;;;;;4.93;3.22;;;9.70;99.90;;;;;;5035000;28;20038;-74
2023/10/27 03:02:05;;;;;;;4.90;3.13;;;9.70;99.90;;;;;;5033763;28;20040;-74
2023/10/27 03:04:30;;;;;;;5.70;3.17;;;9.70;99.90;;;;;;5035293;28;20109;-74
2023/10/27 03:06:56;;;;;;;5.45;3.15;;;9.70;99.90;;;;;;5035135;28;20120;-74
2023/10/27 03:09:22;;;;;;;4.50;2.78;;;9.70;99.90;;;;;;5034832;28;20444;-74
2023/10/27 03:11:48;;;;;;;3.75;2.92;;;9.70;99.90;;;;;;5035119;28;20457;-74
2023/10/27 03:14:15;;;;;;;6.25;3.33;;;9.70;99.90;;;;;;5033604;28;20032;-74
2023/10/27 03:16:41;;;;;;;4.40;2.92;;;9.60;99.90;;;;;;5035274;28;20037;-74
2023/10/27 03:19:06;;;;;;;4.57;3.38;;;9.60;99.90;;;;;;5034691;28;20029;-74
2023/10/27 03:21:33;;;;;;;4.95;2.95;;;9.60;99.90;;;;;;5034830;28;20536;-74
2023/10/27 03:23:59;;;;;;;4.07;2.90;;;9.60;99.90;;;;;;5035149;28;20052;-74
2023/10/27 03:26:24;;;;;;;3.38;2.30;;;9.60;99.90;;;;;;5034845;28;20081;-74
2023/10/27 03:28:50;;;;;;;3.65;2.50;;;9.60;99.90;;;;;;5034448;28;20112;-74
2023/10/27 03:31:16;;;;;;;3.88;2.08;;;9.60;99.90;;;;;;5034961;28;20036;-74
2023/10/27 03:33:41;;;;;;;4.55;2.30;;;9.60;99.90;;;;;;5034963;28;20049;-74
2023/10/27 03:36:07;;;;;;;3.60;2.05;;;9.60;99.90;;;;;;5034670;28;20420;-74
2023/10/27 03:38:33;;;;;;;3.45;2.15;;;9.60;99.90;;;;;;5034378;28;20371;-74
2023/10/27 03:40:59;;;;;;;4.75;2.80;;;9.60;99.90;;;;;;5034270;28;20021;-74
2023/10/27 03:43:25;;;;;;;4.20;2.78;;;9.70;99.90;;;;;;5033117;28;20121;-74
2023/10/27 03:45:50;;;;;;;4.53;2.85;;;9.70;99.90;;;;;;5034364;28;20032;-74
2023/10/27 03:48:16;;;;;;;4.93;3.38;;;9.70;99.90;;;;;;5034293;28;20037;-74
2023/10/27 03:50:42;;;;;;;7.00;3.47;;;9.70;99.90;;;;;;5034023;28;20030;-74
2023/10/27 03:53:08;;;;;;;5.18;3.20;;;9.70;99.90;;;;;;5034112;28;20025;-74
2023/10/27 03:55:33;;;;;;;4.95;2.40;;;9.70;99.90;;;;;;5032808;28;20075;-75
2023/10/27 03:58:18;;;;;;;4.38;3.10;;;9.70;99.90;;;;;;5033827;28;20038;-75
2023/10/27 04:00:44;;;;;;;7.13;3.30;;;9.70;99.90;;;;;;5033840;28;20030;-74
2023/10/27 04:03:11;;;;;;;3.78;2.67;;;9.70;99.90;;;;;;5034108;28;20036;-74
2023/10/27 04:05:36;;;;;;;5.00;2.70;;;9.70;99.90;;;;;;5034428;28;20524;-74
2023/10/27 04:08:04;;;;;;;4.75;2.70;;;9.70;99.90;;;;;;5033777;28;20053;-74
2023/10/27 04:10:34;;;;;;;5.03;2.75;;;9.70;99.90;;;;;;5033866;28;20028;-74
2023/10/27 04:13:00;;;;;;;4.15;2.75;;;9.80;99.90;;;;;;5033673;28;20030;-74
2023/10/27 04:15:26;;;;;;;5.28;2.80;;;9.80;99.90;;;;;;5033754;28;20112;-74
2023/10/27 04:17:52;;;;;;;4.95;2.80;;;9.80;99.90;;;;;;5032551;28;20034;-74
2023/10/27 04:20:18;;;;;;;5.32;2.78;;;9.80;99.90;;;;;;5033600;28;20083;-74
2023/10/27 04:22:44;;;;;;;6.43;3.20;;;9.80;99.90;;;;;;5033824;28;20029;-74
2023/10/27 04:25:12;;;;;;;8.45;4.47;;;9.70;99.90;;;;;;5033579;28;20041;-74
2023/10/27 04:27:39;;;;;;;8.38;4.63;;;9.80;99.90;;;;;;5033502;28;20037;-74
2023/10/27 04:30:07;;;;;;;6.30;4.00;;;9.80;99.90;;;;;;5033443;28;20030;-74
2023/10/27 04:32:36;;;;;;;8.05;3.88;;;9.80;99.90;;;;;;5033462;28;20025;-74
2023/10/27 04:35:03;;;;;;;4.03;2.45;;;9.80;99.90;;;;;;5033347;28;20482;-74
2023/10/27 04:37:30;;;;;;;5.60;3.80;;;9.80;99.90;;;;;;5033411;28;20037;-74
2023/10/27 04:39:56;;;;;;;7.00;5.72;;;9.80;99.90;;;;;;5032065;28;20524;-74
2023/10/27 04:42:22;;;;;;;8.52;7.72;;;9.80;99.90;;;;;;5033374;28;20041;-74
2023/10/27 04:44:48;;;;;;;6.45;5.60;;;9.80;99.90;;;;;;5033451;28;20057;-74
2023/10/27 04:47:14;;;;;;;6.57;4.90;;;9.70;99.90;;;;;;5033206;28;20061;-74
2023/10/27 04:49:39;;;;;;;6.13;4.78;;;9.70;99.90;;;;;;5033226;28;20050;-74
2023/10/27 04:52:08;;;;;;;6.35;4.13;;;9.70;99.90;;;;;;5033570;28;20474;-75
2023/10/27 04:54:34;;;;;;;6.30;2.55;;;9.80;99.90;;;;;;5033268;28;20105;-75
2023/10/27 04:57:04;;;;;;;4.43;3.10;;;9.80;99.90;;;;;;5033821;28;20444;-75
2023/10/27 04:59:31;;;;;;;3.65;1.88;;;9.80;99.90;;;;;;5031962;28;20041;-75
2023/10/27 05:01:56;;;;;;;2.80;1.52;;;9.80;99.90;;;;;;5033463;28;20045;-74
2023/10/27 05:04:22;;;;;;;4.38;1.65;;;9.80;99.90;;;;;;5015515;28;20037;-75
2023/10/27 05:06:48;;;;;;;3.28;1.30;;;9.80;99.90;;;;;;5033100;28;20087;-75
2023/10/27 05:09:14;;;;;;;3.13;1.60;;;9.80;99.90;;;;;;5034475;28;20068;-77
2023/10/27 05:11:43;;;;;;;2.72;1.70;;;9.80;99.90;;;;;;5035751;28;20022;-77
2023/10/27 05:14:08;;;;;;;2.97;1.60;;;9.80;99.90;;;;;;5037062;28;20058;-77
2023/10/27 05:16:34;;;;;;;2.17;1.27;;;9.80;99.90;;;;;;5035861;28;20018;-77
2023/10/27 05:19:00;;;;;;;3.28;1.30;;;9.80;99.90;;;;;;5037051;28;20067;-77
2023/10/27 05:21:27;;;;;;;2.40;1.27;;;9.80;99.90;;;;;;5035783;28;20445;-76
2023/10/27 05:23:56;;;;;;;2.42;1.50;;;9.80;99.90;;;;;;5035664;28;20032;-76
2023/10/27 05:26:22;;;;;;;2.92;1.50;;;9.80;99.90;;;;;;5036306;28;20021;-76
2023/10/27 05:28:49;;;;;;;2.67;1.30;;;9.80;99.90;;;;;;5037016;28;20029;-76
2023/10/27 05:31:14;;;;;;;2.60;1.40;;;9.80;99.90;;;;;;5036656;28;20028;-76
2023/10/27 05:33:40;;;;;;;2.97;1.40;;;9.80;99.90;;;;;;5019010;28;20026;-76
2023/10/27 05:36:06;;;;;;;3.03;1.40;;;9.80;99.90;;;;;;5036742;28;20124;-76
2023/10/27 05:38:32;;;;;;;3.42;1.63;;;9.80;99.90;;;;;;5035654;28;20084;-76
2023/10/27 05:40:57;;;;;;;2.85;1.40;;;9.80;99.90;;;;;;5036467;28;20036;-75
2023/10/27 05:43:23;;;;;;;2.13;1.20;;;9.80;99.90;;;;;;5036526;28;20053;-76
2023/10/27 05:45:48;;;;;;;3.92;1.30;;;9.80;99.90;;;;;;5036472;28;20029;-76
2023/10/27 05:48:14;;;;;;;2.75;1.20;;;9.80;99.90;;;;;;5036386;28;20033;-76
2023/10/27 05:50:40;;;;;;;4.43;2.20;;;9.80;99.90;;;;;;5035101;28;20030;-76
2023/10/27 05:53:05;;;;;;;4.90;2.72;;;9.80;99.90;;;;;;5035058;28;20026;-76
2023/10/27 05:55:31;;;;;;;4.15;2.38;;;9.80;99.90;;;;;;5036567;28;20071;-76
2023/10/27 05:57:57;;;;;;;3.80;2.40;;;9.80;99.90;;;;;;5036100;28;20041;-76
2023/10/27 06:00:22;;;;;;;3.67;2.20;;;9.80;99.90;;;;;;5036125;28;20112;-76
2023/10/27 06:02:48;;;;;;;5.63;2.50;;;9.80;99.90;;;;;;5036253;28;20025;-76
2023/10/27 06:05:17;;;;;;;6.22;3.13;;;9.80;99.90;;;;;;5036125;28;20029;-76
2023/10/27 06:07:42;;;;;;;8.55;3.38;;;9.80;99.90;;;;;;5036059;28;20026;-76
2023/10/27 06:10:08;;;;;;;5.53;3.03;;;9.80;99.90;;;;;;5034771;28;20026;-76
2023/10/27 06:12:34;;;;;;;6.97;4.50;;;9.80;99.90;;;;;;5034724;28;20036;-76
2023/10/27 06:15:00;;;;;;;7.10;3.67;;;9.80;99.90;;;;;;5018342;28;20021;-76
2023/10/27 06:17:26;;;;;;;5.60;4.00;;;9.70;99.90;;;;;;5034663;28;20032;-77
2023/10/27 06:19:51;;;;;;;6.07;3.90;;;9.70;99.90;;;;;;5035803;28;20026;-77
2023/10/27 06:22:18;;;;;;;6.95;3.03;;;9.70;99.90;;;;;;5035641;28;20030;-77
2023/10/27 06:24:44;;;;;;;4.90;3.13;;;9.70;99.90;;;;;;5035823;28;20032;-76
2023/10/27 06:27:10;;;;;;;5.70;3.70;;;9.70;99.90;;;;;;5018068;28;20390;-76
2023/10/27 06:29:35;;;;;;;8.80;4.80;;;9.70;99.90;;;;;;5035603;28;20025;-76
2023/10/27 06:32:03;;;;;;;6.95;4.20;;;9.70;99.90;;;;;;5034506;28;20029;-76
2023/10/27 06:34:29;;;;;;;13.10;7.70;;;9.70;99.90;;;;;;5034713;28;20382;-76
2023/10/27 06:36:55;;;;;;;7.00;4.50;;;9.70;99.90;;;;;;5035525;28;20036;-76
2023/10/27 06:39:20;;;;;;;10.48;5.30;;;9.70;99.90;;;;;;5035511;28;20030;-75
2023/10/27 06:41:48;;;;;;;9.98;5.05;;;9.70;99.90;;;;;;5035429;28;20029;-76
2023/10/27 06:44:13;;;;;;;8.82;4.32;;;9.70;99.90;;;;;;5035733;28;20105;-76
2023/10/27 06:46:40;;;;;;;5.90;3.63;;;9.70;99.90;;;;;;5017630;28;20053;-76
2023/10/27 06:49:05;;;;;;;6.97;3.30;;;9.70;99.90;;;;;;5035300;28;20022;-76
2023/10/27 06:51:31;;;;;;;8.00;4.05;;;9.70;99.90;;;;;;5035221;28;20025;-76
2023/10/27 06:53:57;;;;;;;7.85;3.30;;;9.70;99.90;;;;;;5035289;28;20060;-76
2023/10/27 06:56:22;;;;;;;12.25;5.50;;;9.60;99.90;;;;;;5035257;28;20033;-76
2023/10/27 06:58:48;;;;;;;15.85;6.05;;;9.60;99.90;;;;;;5035637;28;20049;-76
2023/10/27 07:01:15;;;;;;;6.85;3.25;;;9.60;99.90;;;;;;5034124;28;20056;-76
2023/10/27 07:03:40;;;;;;;4.13;2.50;;;9.60;99.90;;;;;;5035389;28;20053;-76
2023/10/27 07:06:06;;;;;;;5.20;2.70;;;9.60;99.90;;;;;;5035137;28;20064;-76
2023/10/27 07:08:32;;;;;;;4.18;2.35;;;9.50;99.90;;;;;;5035525;28;20040;-75
2023/10/27 07:10:58;;;;;;;3.95;2.30;;;9.50;99.90;;;;;;5034896;28;20108;-75
2023/10/27 07:13:28;;;;;;;4.50;1.42;;;9.50;99.90;;;;;;5034903;28;20504;-75
2023/10/27 07:15:54;;;;;;;4.18;2.53;;;9.50;99.90;;;;;;5033584;28;20474;-75
2023/10/27 07:18:20;;;;;;;2.85;1.55;;;9.50;99.90;;;;;;5034718;28;20034;-75
2023/10/27 07:20:46;;;;;;;2.25;1.30;;;9.50;99.90;;;;;;5034794;28;20367;-75
2023/10/27 07:23:13;;;;;;;4.03;2.08;;;9.50;99.90;;;;;;5034743;28;20478;-75
2023/10/27 07:25:38;;;;;;;3.58;2.03;;;9.50;99.90;;;;;;5033542;28;20029;-75
2023/10/27 07:28:04;;;;;;;3.92;2.03;;;9.50;99.90;;;;;;5034523;28;20041;-75
2023/10/27 07:30:31;;;;;;;3.17;1.90;;;9.50;99.90;;;;;;5034475;28;20382;-75
2023/10/27 07:32:57;;;;;;;2.97;1.90;;;9.50;99.90;;;;;;5033957;28;20025;-75
2023/10/27 07:35:23;;;;;;;3.00;2.03;;;9.50;99.90;;;;;;5035014;28;20030;-75
2023/10/27 07:37:49;;;;;;;3.22;1.50;;;9.50;99.90;;;;;;5033182;28;20036;-75
2023/10/27 07:40:18;;;;;;;3.28;1.15;;;9.50;99.90;;;;;;5034493;28;20505;-75
2023/10/27 07:42:43;;;;;;;1.63;0.90;;;9.50;99.90;;;;;;5034731;28;20057;-75
2023/10/27 07:45:09;;;;;;;1.67;0.85;;;9.50;99.90;;;;;;5034569;28;20067;-75
2023/10/27 07:47:35;;;;;;;1.55;0.82;;;9.50;99.90;;;;;;5034164;28;20030;-75
2023/10/27 07:50:01;;;;;;;1.70;1.02;;;9.50;99.90;;;;;;5034164;28;20482;-75
2023/10/27 07:52:27;;;;;;;3.03;1.38;;;9.50;99.90;;;;;;5034404;28;20029;-75
2023/10/27 07:54:54;;;;;;;1.88;0.93;;;9.60;99.90;;;;;;5034256;28;20111;-75
2023/10/27 07:57:21;;;;;;;2.30;1.42;;;9.60;99.90;;;;;;5034288;28;20426;-75
2023/10/27 07:59:47;;;;;;;4.80;2.53;;;9.60;99.90;;;;;;5034316;28;20033;-75
2023/10/27 08:02:12;;;;;;;5.10;4.25;;;9.60;99.90;;;;;;5034522;28;20539;-75
2023/10/27 08:04:38;;;;;;;14.93;9.60;;;9.70;99.90;;;;;;5033994;28;20033;-75
2023/10/27 08:07:04;;;;;;;15.27;8.35;;;9.70;99.90;;;;;;5033832;28;20383;-75
2023/10/27 08:09:31;;;;;;;3.22;2.30;;;9.70;99.90;;;;;;5032772;28;20021;-76
2023/10/27 08:11:56;;;;;;;2.20;1.10;;;9.80;99.90;;;;;;5032888;28;20503;-76
2023/10/27 08:14:22;;;;;;;1.60;1.08;;;9.80;99.90;;;;;;5032853;28;20061;-75
2023/10/27 08:16:48;;;;;;;1.95;0.82;;;9.80;99.90;;;;;;5033900;28;20083;-75
2023/10/27 08:19:13;;;;;;;1.77;0.93;;;9.90;99.90;;;;;;5032379;28;20172;-75
2023/10/27 08:21:39;;;;;;;2.58;1.50;;;9.90;99.90;;;;;;5033624;28;20037;-75
2023/10/27 08:24:06;;;;;;;2.30;1.30;;;9.90;99.90;;;;;;5016089;28;20025;-76
2023/10/27 08:26:31;;;;;;;2.63;1.58;;;10.00;99.90;;;;;;5033538;28;20482;-75
2023/10/27 08:28:57;;;;;;;3.85;2.10;;;10.00;99.90;;;;;;5033496;28;20071;-75
2023/10/27 08:31:23;;;;;;;4.30;2.47;;;10.00;99.90;;;;;;5033406;28;20056;-75
2023/10/27 08:33:48;;;;;;;3.97;2.33;;;10.00;99.90;;;;;;5033456;28;20065;-75
2023/10/27 08:36:15;;;;;;;5.00;2.47;;;10.00;99.90;;;;;;5033516;28;20033;-75
2023/10/27 08:38:43;;;;;;;5.20;2.60;;;10.00;99.90;;;;;;5033791;28;20026;-76
2023/10/27 08:41:09;;;;;;;2.60;1.95;;;10.00;99.90;;;;;;5033606;28;20429;-75
2023/10/27 08:43:37;;;;;;;3.38;2.20;;;10.10;99.90;;;;;;5032912;28;20084;-75
2023/10/27 08:46:06;;;;;;;4.18;2.30;;;10.10;99.90;;;;;;5033194;28;20029;-75
2023/10/27 08:48:32;;;;;;;4.25;2.40;;;10.10;99.90;;;;;;5033304;28;20021;-75
2023/10/27 08:51:06;;;;;;;3.30;2.00;;;10.20;99.90;;;;;;5033266;28;20021;-75
2023/10/27 08:53:31;;;;;;;4.18;2.33;;;10.10;99.90;;;;;;5032382;28;20029;-75
2023/10/27 08:55:58;;;;;;;2.95;1.70;;;10.20;99.90;;;;;;5032115;28;20036;-75
2023/10/27 08:58:24;;;;;;;3.03;1.42;;;10.20;99.90;;;;;;5033382;28;20095;-75
2023/10/27 09:00:50;;;;;;;3.90;1.73;;;10.30;99.90;;;;;;5033307;28;20021;-75
2023/10/27 09:03:18;;;;;;;4.32;2.15;;;10.30;99.90;;;;;;5032108;28;20033;-75
2023/10/27 09:05:45;;;;;;;4.95;1.60;;;10.30;99.90;;;;;;5033428;28;20474;-75
2023/10/27 09:08:11;;;;;;;3.25;1.42;;;10.30;99.90;;;;;;5033609;28;20038;-75
2023/10/27 09:10:37;;;;;;;3.45;1.45;;;10.30;99.90;;;;;;5033084;28;20082;-75
2023/10/27 09:13:07;;;;;;;2.17;1.33;;;10.30;99.90;;;;;;5031939;28;20017;-75
2023/10/27 09:15:51;;;;;;;2.42;1.45;;;10.30;99.90;;;;;;5033207;28;20096;-75
2023/10/27 09:18:18;;;;;;;2.45;1.30;;;10.40;99.90;;;;;;5033383;28;20025;-76
2023/10/27 09:20:49;;;;;;;2.35;1.50;;;10.40;99.90;;;;;;5033182;28;20076;-75
2023/10/27 09:23:16;;;;;;;2.15;1.30;;;10.40;99.90;;;;;;5033086;28;20033;-75
2023/10/27 09:25:42;;;;;;;1.77;0.90;;;10.40;99.90;;;;;;5031879;28;20040;-75
2023/10/27 09:28:07;;;;;;;2.33;0.95;;;10.40;99.90;;;;;;5033010;28;20033;-75
2023/10/27 09:30:39;;;;;;;3.33;1.63;;;10.40;99.90;;;;;;5031887;28;20525;-75
2023/10/27 09:33:13;;;;;;;;;;;10.40;99.90;;;;;;5033446;28;20017;-75
2023/10/27 09:35:40;;;;;;;5.65;2.42;;;10.50;99.90;;;;;;5031713;28;20276;-75
2023/10/27 09:38:06;;;;;;;2.45;1.52;;;10.40;99.90;;;;;;5033243;28;20041;-75
2023/10/27 09:40:40;;;;;;;3.10;1.35;;;10.50;99.90;;;;;;5031685;28;20033;-75
2023/10/27 09:43:24;;;;;;;2.85;1.73;;;10.50;99.90;;;;;;5032899;28;20033;-75
2023/10/27 09:45:55;;;;;;;3.28;1.67;;;10.60;99.90;;;;;;5032846;28;20048;-75
2023/10/27 09:48:24;;;;;;;2.90;1.50;;;10.60;99.90;;;;;;5032835;28;20407;-75
2023/10/27 09:51:10;;;;;;;2.45;1.10;;;10.60;99.90;;;;;;5033167;28;20049;-75
2023/10/27 09:53:37;;;;;;;4.45;2.55;;;10.60;99.90;;;;;;5033385;28;20502;-75
2023/10/27 09:56:03;;;;;;;6.32;2.60;;;10.60;99.90;;;;;;5034247;28;20040;-75
2023/10/27 09:58:34;;;;;;;5.55;2.50;;;10.70;99.90;;;;;;5036230;28;20489;-75
2023/10/27 10:01:01;;;;;;;5.85;3.25;;;10.70;99.90;;;;;;5036380;28;20026;-74
2023/10/27 10:03:27;;;;;;;5.72;3.17;;;10.70;99.90;;;;;;5036170;28;20029;-75
2023/10/27 10:06:21;;;;;;;4.90;2.90;;;10.70;99.90;;;;;;5036196;28;20057;-75
2023/10/27 10:09:10;;;;;;;5.18;2.28;;;10.80;99.90;;;;;;5036258;28;20022;-75
2023/10/27 10:11:54;;;;;;;2.58;1.70;;;10.70;99.90;;;;;;5036124;28;20486;-75
2023/10/27 10:14:40;;;;;;;3.53;1.80;;;10.80;99.90;;;;;;5036040;28;20068;-75
2023/10/27 10:17:06;;;;;;;6.22;2.50;;;10.80;99.90;;;;;;5036172;28;20516;-75
2023/10/27 10:19:51;;;;;;;4.85;2.83;;;10.80;99.90;;;;;;5035868;28;20037;-75
2023/10/27 10:22:42;;;;;;;8.45;4.85;;;10.90;99.90;;;;;;5035829;28;20029;-75
2023/10/27 10:25:19;;;;;;;5.07;2.90;;;10.90;99.90;;;;;;5030576;28;20022;-74
2023/10/27 10:28:06;;;;;;;5.00;2.65;;;11.00;99.90;;;;;;5019791;28;20057;-74
2023/10/27 10:30:36;;;;;;;12.25;7.63;;;11.10;99.90;;;;;;5023573;28;20029;-74
2023/10/27 10:33:16;;;;;;;5.88;4.25;;;11.20;99.90;;;;;;5024479;28;20087;-75
2023/10/27 10:35:46;;;;;;;3.60;1.77;;;11.20;99.90;;;;;;5035938;28;20097;-74
2023/10/27 10:38:23;;;;;;;3.00;1.50;;;11.30;99.90;;;;;;5021834;28;20034;-75
2023/10/27 10:40:59;;;;;;;2.83;1.60;;;11.50;99.90;;;;;;5015653;28;20102;-75
2023/10/27 10:43:36;;;;;;;3.28;1.52;;;11.50;99.90;;;;;;5015724;28;20037;-74
2023/10/27 10:46:04;;;;;;;3.38;1.38;;;11.60;99.90;;;;;;5016306;28;20413;-74
2023/10/27 10:48:45;;;;;;;2.60;1.17;;;11.60;99.90;;;;;;5014276;28;20507;-75
2023/10/27 10:51:29;;;;;;;1.45;0.90;;;11.70;99.90;;;;;;5014264;28;20064;-75
2023/10/27 10:53:55;;;;;;;1.75;0.82;;;11.70;99.90;;;;;;5015584;28;20437;-74
2023/10/27 10:56:24;;;;;;;2.60;1.30;;;11.70;99.90;;;;;;5015445;28;20049;-75
2023/10/27 10:58:50;;;;;;;2.03;1.17;;;11.70;99.90;;;;;;5014206;28;20571;-74
2023/10/27 11:01:20;;;;;;;2.08;1.10;;;11.70;99.90;;;;;;5028406;28;20112;-74
2023/10/27 11:03:48;;;;;;;1.80;1.10;;;11.70;99.90;;;;;;5033980;28;20033;-74
2023/10/27 11:06:14;;;;;;;2.17;0.93;;;11.70;99.90;;;;;;5035286;28;20032;-74
2023/10/27 11:08:40;;;;;;;3.58;1.00;;;11.80;99.90;;;;;;5033327;28;20053;-74
2023/10/27 11:11:13;;;;;;;1.67;0.80;;;11.80;99.90;;;;;;5035142;28;20107;-74
2023/10/27 11:13:51;;;;;;;2.47;0.80;;;11.80;99.90;;;;;;5035054;28;20033;-74
2023/10/27 11:16:18;;;;;;;1.48;0.60;;;11.80;99.90;;;;;;5033822;28;20028;-74
2023/10/27 11:18:45;;;;;;;0.73;0.40;;;11.80;99.90;;;;;;5035166;28;20021;-74
2023/10/27 11:21:18;;;;;;;2.08;0.35;;;11.80;99.90;;;;;;5035069;28;20053;-74
2023/10/27 11:23:45;;;;;;;1.35;0.50;;;11.90;99.90;;;;;;5031928;28;20112;-74
2023/10/27 11:26:11;;;;;;;0.82;0.30;;;12.00;99.90;;;;;;5034483;28;20033;-74
2023/10/27 11:28:39;;;;;;;1.13;0.40;;;12.00;99.90;;;;;;5034657;28;20053;-74
2023/10/27 11:31:12;;;;;;;0.60;0.20;;;12.10;99.90;;;;;;5033242;28;20083;-73
2023/10/27 11:33:57;;;;;;;1.15;0.40;;;12.10;99.90;;;;;;5034898;28;20025;-74
2023/10/27 11:36:43;;;;;;;0.38;0.20;;;12.10;99.90;;;;;;5034601;28;20100;-73
2023/10/27 11:39:22;;;;;;;0.30;0.20;;;12.00;99.90;;;;;;5034341;28;20049;-74
2023/10/27 11:41:55;;;;;;;0.77;0.20;;;12.00;99.90;;;;;;5034797;28;20032;-74
2023/10/27 11:44:21;;;;;;;0.55;0.25;;;12.00;99.90;;;;;;5034912;28;20025;-74
2023/10/27 11:46:49;;;;;;;0.30;0.20;;;12.00;99.90;;;;;;5032763;28;20128;-74
2023/10/27 11:49:15;;;;;;;0.35;0.25;;;12.20;99.90;;;;;;5034356;28;20029;-74
2023/10/27 11:51:48;;;;;;;2.03;0.40;;;12.30;99.90;;;;;;5034174;28;20029;-74
2023/10/27 11:54:15;;;;;;;1.17;0.40;;;12.50;99.90;;;;;;5032870;28;20049;-74
2023/10/27 11:56:42;;;;;;;1.60;0.75;;;12.60;99.90;;;;;;5034084;28;20112;-74
2023/10/27 11:59:09;;;;;;;3.67;0.75;;;12.70;99.90;;;;;;5034779;28;20049;-73
2023/10/27 12:01:38;;;;;;;2.58;0.60;;;12.80;99.90;;;;;;5038037;28;20029;-73
2023/10/27 12:04:07;;;;;;;1.00;0.35;;;12.90;99.90;;;;;;5037549;28;20029;-73
2023/10/27 12:06:33;;;;;;;0.57;0.20;;;13.00;99.90;;;;;;5034961;28;20040;-73
2023/10/27 12:08:59;;;;;;;0.40;0.30;;;13.10;99.90;;;;;;5020165;28;20030;-74
2023/10/27 12:11:25;;;;;;;0.85;0.30;;;13.20;99.90;;;;;;5013040;28;20038;-74
2023/10/27 12:13:50;;;;;;;0.70;0.32;;;13.30;99.90;;;;;;5014437;28;20022;-74
2023/10/27 12:16:16;;;;;;;0.55;0.30;;;13.30;99.90;;;;;;5014348;28;20032;-74
2023/10/27 12:18:43;;;;;;;1.30;0.30;;;13.40;99.90;;;;;;5013854;28;20030;-74
2023/10/27 12:21:09;;;;;;;0.98;0.30;;;13.40;99.90;;;;;;5013921;28;20033;-74
2023/10/27 12:23:35;;;;;;;1.13;0.30;;;13.50;99.90;;;;;;5014044;28;20038;-74
2023/10/27 12:26:01;;;;;;;1.65;0.30;;;13.50;99.90;;;;;;5013953;28;20110;-74
2023/10/27 12:28:27;;;;;;;0.40;0.25;;;13.50;99.90;;;;;;5013855;28;20059;-74
2023/10/27 12:30:56;;;;;;;0.30;0.20;;;13.60;99.90;;;;;;5015197;28;20080;-74
2023/10/27 12:33:22;;;;;;;0.30;0.10;;;13.70;99.90;;;;;;5013922;28;20030;-74
2023/10/27 12:35:51;;;;;;;0.30;0.20;;;13.70;99.90;;;;;;5013869;28;20032;-74
2023/10/27 12:38:20;;;;;;;0.52;0.20;;;13.80;99.90;;;;;;5013745;28;20498;-74
2023/10/27 12:40:47;;;;;;;0.47;0.30;;;13.80;99.90;;;;;;5013676;28;20423;-74
2023/10/27 12:43:16;;;;;;;0.60;0.20;;;13.90;99.90;;;;;;5013689;28;20034;-74
2023/10/27 12:45:42;;;;;;;1.38;0.10;;;14.10;99.90;;;;;;5013985;28;20060;-74
2023/10/27 12:48:09;;;;;;;0.60;0.20;;;14.20;99.90;;;;;;5013621;28;20076;-74
2023/10/27 12:50:35;;;;;;;0.43;0.20;;;14.20;99.90;;;;;;5013611;28;20474;-74
2023/10/27 12:53:05;;;;;;;0.50;0.20;;;14.30;99.90;;;;;;5014966;28;20033;-74
2023/10/27 12:55:31;;;;;;;1.40;0.20;;;14.40;99.90;;;;;;5012396;28;20493;-74